createdAt,value
2023-05-12T00:00:49.438Z,44.46
2023-05-12T00:03:16.676Z,44.59
2023-05-12T00:05:44.345Z,44.22
2023-05-12T00:08:11.488Z,44.77
2023-05-12T00:10:38.646Z,44.71
2023-05-12T00:13:06.002Z,44.51
2023-05-12T00:15:33.147Z,44.71
2023-05-12T00:18:00.319Z,44.66
2023-05-12T00:20:27.453Z,44.65
2023-05-12T00:22:54.598Z,44.38
2023-05-12T00:25:21.755Z,44.26
2023-05-12T00:27:48.829Z,43.96
2023-05-12T00:30:16.483Z,43.96
2023-05-12T00:32:43.674Z,44.21
2023-05-12T00:35:10.878Z,43.93
2023-05-12T00:37:38.239Z,44.25
2023-05-12T00:40:06.138Z,44.17
2023-05-12T00:42:35.216Z,44.24
2023-05-12T00:45:03.007Z,44.30
2023-05-12T00:47:30.683Z,44.11
2023-05-12T00:49:57.890Z,43.78
2023-05-12T00:52:25.451Z,44.07
2023-05-12T00:54:52.729Z,43.92
2023-05-12T00:57:21.055Z,43.98
2023-05-12T00:59:48.440Z,44.28
2023-05-12T01:02:16.144Z,44.43
2023-05-12T01:04:43.668Z,44.49
2023-05-12T01:07:15.230Z,44.36
2023-05-12T01:09:42.478Z,44.20
2023-05-12T01:12:10.144Z,44.15
2023-05-12T01:14:37.913Z,44.32
2023-05-12T01:17:09.102Z,44.22
2023-05-12T01:19:55.253Z,44.56
2023-05-12T01:22:22.638Z,44.70
2023-05-12T01:24:58.314Z,44.55
2023-05-12T01:27:27.771Z,44.43
2023-05-12T01:29:58.408Z,44.23
2023-05-12T01:32:26.688Z,44.61
2023-05-12T01:34:54.033Z,44.70
2023-05-12T01:37:21.601Z,44.75
2023-05-12T01:39:48.763Z,44.65
2023-05-12T01:42:19.686Z,44.75
2023-05-12T01:44:47.451Z,45.03
2023-05-12T01:47:16.168Z,45.19
2023-05-12T01:49:49.231Z,45.32
2023-05-12T01:52:16.889Z,45.69
2023-05-12T01:54:44.047Z,45.76
2023-05-12T01:57:12.222Z,45.61
2023-05-12T01:59:39.575Z,45.36
2023-05-12T02:02:07.566Z,45.23
2023-05-12T02:04:34.899Z,45.48
2023-05-12T02:07:02.256Z,45.86
2023-05-12T02:09:29.614Z,45.69
2023-05-12T02:12:00.248Z,45.44
2023-05-12T02:14:27.605Z,45.53
2023-05-12T02:16:55.696Z,45.57
2023-05-12T02:19:24.056Z,46.03
2023-05-12T02:21:51.221Z,46.29
2023-05-12T02:24:18.364Z,46.34
2023-05-12T02:26:45.719Z,45.94
2023-05-12T02:29:13.687Z,46.26
2023-05-12T02:31:41.334Z,46.43
2023-05-12T02:34:15.985Z,46.59
2023-05-12T02:36:43.131Z,46.59
2023-05-12T02:39:10.893Z,46.18
2023-05-12T02:41:38.966Z,46.39
2023-05-12T02:44:06.121Z,46.39
2023-05-12T02:46:33.271Z,46.93
2023-05-12T02:49:00.428Z,47.32
2023-05-12T02:51:27.586Z,47.42
2023-05-12T02:53:54.728Z,47.55
2023-05-12T02:56:22.577Z,47.63
2023-05-12T02:58:49.849Z,47.45
2023-05-12T03:01:17.065Z,47.17
2023-05-12T03:03:44.522Z,46.99
2023-05-12T03:06:12.126Z,47.19
2023-05-12T03:08:39.380Z,47.56
2023-05-12T03:11:06.733Z,47.77
2023-05-12T03:13:34.002Z,48.21
2023-05-12T03:16:01.949Z,48.16
2023-05-12T03:18:29.778Z,48.35
2023-05-12T03:20:57.798Z,48.78
2023-05-12T03:23:25.168Z,48.76
2023-05-12T03:25:52.305Z,48.49
2023-05-12T03:28:19.455Z,48.07
2023-05-12T03:30:46.612Z,48.13
2023-05-12T03:33:13.769Z,47.80
2023-05-12T03:35:41.028Z,47.24
2023-05-12T03:38:08.112Z,47.12
2023-05-12T03:40:35.229Z,47.11
2023-05-12T03:43:03.084Z,47.15
2023-05-12T03:45:30.240Z,46.85
2023-05-12T03:47:57.417Z,46.64
2023-05-12T03:50:24.543Z,46.74
2023-05-12T03:52:56.227Z,47.06
2023-05-12T03:55:23.456Z,47.21
2023-05-12T03:57:50.608Z,47.40
2023-05-12T04:00:18.807Z,47.03
2023-05-12T04:02:46.719Z,46.98
2023-05-12T04:05:14.310Z,46.86
2023-05-12T04:07:41.799Z,46.79
2023-05-12T04:10:09.333Z,46.71
2023-05-12T04:12:36.483Z,46.86
2023-05-12T04:15:05.190Z,47.00
2023-05-12T04:17:32.340Z,46.84
2023-05-12T04:19:59.574Z,46.81
2023-05-12T04:22:27.140Z,46.81
2023-05-12T04:24:54.603Z,46.90
2023-05-12T04:27:22.063Z,46.69
2023-05-12T04:29:49.225Z,46.62
2023-05-12T04:32:16.380Z,46.63
2023-05-12T04:34:43.733Z,46.96
2023-05-12T04:37:11.089Z,47.16
2023-05-12T04:39:38.251Z,47.40
2023-05-12T04:42:06.069Z,47.45
2023-05-12T04:44:34.499Z,47.32
2023-05-12T04:47:01.639Z,47.45
2023-05-12T04:49:30.532Z,47.59
2023-05-12T04:51:57.802Z,47.81
2023-05-12T04:54:25.045Z,48.02
2023-05-12T04:56:52.608Z,48.17
2023-05-12T04:59:19.989Z,48.18
2023-05-12T05:01:49.396Z,48.18
2023-05-12T05:04:17.150Z,48.35
2023-05-12T05:06:44.292Z,48.35
2023-05-12T05:09:11.855Z,48.18
2023-05-12T05:11:40.745Z,47.96
2023-05-12T05:14:08.015Z,47.72
2023-05-12T05:16:36.177Z,47.55
2023-05-12T05:19:06.355Z,47.36
2023-05-12T05:21:35.010Z,47.32
2023-05-12T05:24:02.128Z,47.90
2023-05-12T05:26:29.290Z,47.66
2023-05-12T05:28:56.546Z,47.39
2023-05-12T05:31:25.534Z,47.11
2023-05-12T05:33:52.732Z,46.91
2023-05-12T05:36:20.558Z,46.57
2023-05-12T05:38:48.525Z,46.47
2023-05-12T05:41:15.684Z,46.34
2023-05-12T05:43:42.810Z,46.46
2023-05-12T05:46:10.405Z,46.49
2023-05-12T05:48:38.877Z,46.87
2023-05-12T05:51:06.952Z,46.20
2023-05-12T05:53:34.203Z,45.95
2023-05-12T05:56:01.779Z,46.19
2023-05-12T05:58:29.243Z,45.41
2023-05-12T06:00:56.373Z,45.01
2023-05-12T06:03:23.925Z,44.73
2023-05-12T06:05:51.494Z,44.31
2023-05-12T06:08:19.100Z,43.87
2023-05-12T06:10:46.321Z,43.36
2023-05-12T06:13:13.459Z,44.10
2023-05-12T06:15:40.610Z,43.37
2023-05-12T06:18:07.978Z,43.74
2023-05-12T06:20:35.218Z,42.81
2023-05-12T06:23:02.369Z,42.09
2023-05-12T06:25:29.588Z,42.49
2023-05-12T06:27:56.780Z,42.74
2023-05-12T06:30:24.336Z,42.62
2023-05-12T06:32:55.156Z,42.70
2023-05-12T06:35:22.739Z,41.47
2023-05-12T06:37:51.317Z,41.20
2023-05-12T06:40:18.778Z,40.35
2023-05-12T06:42:45.927Z,39.55
2023-05-12T06:45:17.499Z,39.07
2023-05-12T06:47:44.874Z,39.36
2023-05-12T06:50:12.099Z,38.88
2023-05-12T06:52:39.454Z,39.10
2023-05-12T06:55:07.313Z,38.69
2023-05-12T06:57:35.190Z,38.32
2023-05-12T07:00:03.673Z,37.59
2023-05-12T07:02:31.234Z,37.75
2023-05-12T07:04:58.592Z,37.99
2023-05-12T07:07:25.746Z,38.36
2023-05-12T07:09:52.893Z,38.21
2023-05-12T07:12:20.045Z,37.79
2023-05-12T07:14:48.827Z,36.74
2023-05-12T07:17:15.982Z,36.94
2023-05-12T07:19:43.946Z,36.66
2023-05-12T07:22:11.406Z,35.38
2023-05-12T07:24:38.968Z,34.21
2023-05-12T07:27:06.538Z,35.67
2023-05-12T07:29:33.679Z,35.32
2023-05-12T07:32:00.829Z,35.33
2023-05-12T07:34:27.981Z,35.15
2023-05-12T07:36:55.134Z,34.81
2023-05-12T07:39:24.064Z,34.10
2023-05-12T07:41:53.126Z,34.15
2023-05-12T07:44:20.190Z,33.42
2023-05-12T07:46:47.562Z,33.32
2023-05-12T07:49:14.702Z,33.38
2023-05-12T07:51:41.833Z,32.81
2023-05-12T07:54:08.986Z,32.49
2023-05-12T07:56:36.142Z,32.61
2023-05-12T07:59:03.600Z,32.71
2023-05-12T08:01:32.036Z,33.07
2023-05-12T08:03:59.570Z,32.46
2023-05-12T08:06:26.794Z,31.55
2023-05-12T08:08:54.152Z,31.38
2023-05-12T08:11:21.303Z,31.16
2023-05-12T08:13:48.455Z,31.62
2023-05-12T08:16:15.655Z,30.30
2023-05-12T08:18:42.881Z,29.76
2023-05-12T08:21:10.128Z,28.91
2023-05-12T08:23:40.283Z,28.96
2023-05-12T08:26:07.380Z,29.13
2023-05-12T08:28:34.637Z,29.61
2023-05-12T08:31:04.847Z,29.75
2023-05-12T08:33:32.224Z,29.40
2023-05-12T08:35:59.372Z,29.53
2023-05-12T08:38:26.522Z,29.02
2023-05-12T08:41:13.859Z,28.48
2023-05-12T08:43:45.811Z,28.09
2023-05-12T08:46:13.556Z,28.61
2023-05-12T08:48:41.550Z,29.67
2023-05-12T08:51:13.534Z,30.10
2023-05-12T08:53:41.888Z,30.44
2023-05-12T08:58:42.414Z,30.67
2023-05-12T09:01:10.460Z,30.31
2023-05-12T09:03:39.319Z,28.88
2023-05-12T09:06:06.964Z,29.19
2023-05-12T09:08:35.446Z,29.53
2023-05-12T09:11:02.824Z,29.31
2023-05-12T09:13:46.540Z,29.24
2023-05-12T09:16:14.092Z,28.23
2023-05-12T09:18:49.317Z,28.39
2023-05-12T09:21:16.502Z,28.12
2023-05-12T09:24:00.863Z,27.39
2023-05-12T09:26:28.688Z,28.04
2023-05-12T09:29:06.746Z,27.48
2023-05-12T09:31:34.270Z,27.90
2023-05-12T09:34:02.676Z,27.74
2023-05-12T09:36:29.823Z,27.73
2023-05-12T09:39:04.645Z,28.62
2023-05-12T09:41:35.290Z,28.18
2023-05-12T09:44:02.749Z,28.02
2023-05-12T09:46:30.385Z,28.35
2023-05-12T09:48:59.516Z,29.07
2023-05-12T09:51:27.281Z,28.03
2023-05-12T09:53:54.529Z,27.26
2023-05-12T09:56:22.235Z,27.53
2023-05-12T09:58:49.855Z,25.71
2023-05-12T10:01:23.425Z,25.91
2023-05-12T10:03:56.146Z,26.52
2023-05-12T10:06:34.391Z,25.61
2023-05-12T10:09:19.734Z,24.97
2023-05-12T10:11:47.901Z,25.24
2023-05-12T10:14:15.060Z,25.40
2023-05-12T10:16:42.249Z,25.41
2023-05-12T10:19:11.644Z,25.23
2023-05-12T10:21:38.757Z,24.76
2023-05-12T10:24:06.417Z,24.77
2023-05-12T10:26:35.318Z,24.40
2023-05-12T10:29:02.667Z,24.39
2023-05-12T10:31:29.902Z,23.86
2023-05-12T10:34:01.113Z,24.20
2023-05-12T10:36:29.344Z,22.98
2023-05-12T10:38:56.831Z,22.14
2023-05-12T10:41:31.999Z,22.36
2023-05-12T10:43:59.301Z,22.32
2023-05-12T10:46:30.651Z,21.94
2023-05-12T10:49:09.081Z,22.28
2023-05-12T10:51:45.458Z,21.65
2023-05-12T10:54:18.525Z,21.59
2023-05-12T10:56:46.243Z,21.39
2023-05-12T10:59:24.461Z,21.37
2023-05-12T11:02:03.908Z,21.51
2023-05-12T11:04:42.073Z,21.54
2023-05-12T11:07:11.803Z,22.17
2023-05-12T11:09:52.400Z,22.43
2023-05-12T11:12:26.946Z,22.65
2023-05-12T11:14:54.122Z,22.61
2023-05-12T11:17:21.362Z,22.86
2023-05-12T11:19:49.739Z,22.94
2023-05-12T11:22:18.600Z,22.84
2023-05-12T11:26:40.787Z,24.19
2023-05-12T11:29:07.937Z,23.49
2023-05-12T11:31:35.141Z,23.37
2023-05-12T11:34:12.538Z,22.52
2023-05-12T11:36:42.806Z,22.18
2023-05-12T11:39:17.044Z,21.81
2023-05-12T11:41:45.012Z,22.35
2023-05-12T11:44:16.038Z,22.09
2023-05-12T11:47:02.642Z,21.46
2023-05-12T11:49:31.144Z,20.02
2023-05-12T11:52:00.219Z,19.93
2023-05-12T11:54:31.061Z,19.32
2023-05-12T11:56:58.328Z,19.80
2023-05-12T11:59:33.266Z,19.87
2023-05-12T12:02:01.989Z,20.10
2023-05-12T12:04:40.502Z,19.95
2023-05-12T12:07:08.534Z,20.04
2023-05-12T12:09:43.365Z,20.73
2023-05-12T12:12:11.641Z,21.64
2023-05-12T12:14:39.101Z,20.98
2023-05-12T12:17:06.255Z,21.38
2023-05-12T12:19:33.713Z,21.53
2023-05-12T12:22:00.864Z,22.40
2023-05-12T12:24:28.026Z,22.88
2023-05-12T12:26:55.165Z,22.64
2023-05-12T12:29:24.162Z,22.19
2023-05-12T12:31:51.498Z,22.07
2023-05-12T12:34:19.490Z,21.13
2023-05-12T12:36:48.175Z,20.69
2023-05-12T12:39:16.778Z,21.38
2023-05-12T12:41:48.334Z,22.15
2023-05-12T12:44:16.095Z,21.74
2023-05-12T12:46:43.419Z,20.97
2023-05-12T12:49:10.701Z,20.79
2023-05-12T12:51:45.654Z,20.69
2023-05-12T12:54:15.248Z,21.17
2023-05-12T12:56:44.458Z,21.22
2023-05-12T12:59:12.214Z,19.96
2023-05-12T13:01:39.354Z,19.99
2023-05-12T13:04:06.509Z,20.07
2023-05-12T13:06:33.662Z,20.46
2023-05-12T13:09:01.830Z,20.49
2023-05-12T13:11:29.201Z,20.45
2023-05-12T13:13:56.348Z,20.32
2023-05-12T13:16:23.523Z,20.46
2023-05-12T13:18:51.110Z,21.12
2023-05-12T13:21:19.043Z,21.57
2023-05-12T13:23:46.191Z,22.25
2023-05-12T13:26:14.071Z,22.55
2023-05-12T13:28:41.295Z,22.83
2023-05-12T13:31:08.535Z,22.92
2023-05-12T13:33:35.705Z,23.42
2023-05-12T13:36:02.857Z,22.72
2023-05-12T13:38:31.038Z,22.90
2023-05-12T13:40:58.180Z,23.37
2023-05-12T13:43:25.444Z,22.48
2023-05-12T13:45:52.632Z,22.57
2023-05-12T13:48:19.976Z,22.50
2023-05-12T13:50:47.400Z,22.09
2023-05-12T13:53:14.552Z,21.90
2023-05-12T13:55:41.912Z,21.28
2023-05-12T13:58:09.064Z,21.43
2023-05-12T14:00:36.211Z,21.80
2023-05-12T14:03:03.394Z,22.10
2023-05-12T14:05:30.756Z,22.74
2023-05-12T14:07:58.082Z,22.65
2023-05-12T14:10:25.229Z,22.11
2023-05-12T14:12:52.380Z,22.29
2023-05-12T14:15:32.510Z,22.90
2023-05-12T14:18:03.604Z,22.68
2023-05-12T14:20:30.835Z,22.36
2023-05-12T14:22:58.189Z,22.68
2023-05-12T14:25:25.661Z,22.27
2023-05-12T14:27:52.826Z,22.19
2023-05-12T14:30:22.094Z,22.48
2023-05-12T14:32:50.008Z,23.23
2023-05-12T14:35:17.270Z,23.29
2023-05-12T14:37:44.372Z,23.26
2023-05-12T14:40:12.506Z,23.75
2023-05-12T14:42:40.020Z,23.54
2023-05-12T14:45:08.281Z,23.95
2023-05-12T14:47:35.677Z,23.40
2023-05-12T14:50:03.121Z,23.53
2023-05-12T14:52:31.389Z,22.78
2023-05-12T14:54:58.547Z,22.26
2023-05-12T14:57:25.797Z,22.56
2023-05-12T14:59:56.637Z,22.01
2023-05-12T15:02:23.851Z,21.70
2023-05-12T15:04:51.046Z,21.91
2023-05-12T15:07:18.189Z,22.11
2023-05-12T15:09:45.247Z,22.29
2023-05-12T15:12:12.408Z,22.63
2023-05-12T15:14:39.547Z,21.72
2023-05-12T15:17:06.747Z,22.08
2023-05-12T15:19:33.952Z,22.22
2023-05-12T15:22:01.206Z,21.35
2023-05-12T15:24:29.075Z,20.89
2023-05-12T15:26:56.338Z,21.26
2023-05-12T15:29:24.096Z,21.20
2023-05-12T15:31:51.605Z,21.58
2023-05-12T15:34:18.815Z,22.36
2023-05-12T15:36:48.996Z,22.50
2023-05-12T15:39:19.520Z,22.86
2023-05-12T15:41:47.741Z,23.19
2023-05-12T15:44:15.299Z,23.54
2023-05-12T15:46:43.018Z,24.22
2023-05-12T15:49:10.526Z,24.51
2023-05-12T15:51:37.790Z,24.40
2023-05-12T15:54:07.145Z,24.84
2023-05-12T15:56:36.701Z,24.87
2023-05-12T15:59:05.479Z,24.93
2023-05-12T16:01:32.779Z,25.51
2023-05-12T16:04:00.269Z,26.13
2023-05-12T16:06:27.563Z,25.93
2023-05-12T16:08:54.700Z,25.67
2023-05-12T16:11:21.851Z,25.72
2023-05-12T16:13:49.006Z,25.90
2023-05-12T16:16:16.175Z,26.12
2023-05-12T16:18:43.861Z,26.73
2023-05-12T16:21:13.015Z,26.63
2023-05-12T16:23:40.277Z,26.81
2023-05-12T16:26:07.524Z,26.90
2023-05-12T16:28:34.985Z,26.79
2023-05-12T16:31:02.956Z,27.22
2023-05-12T16:33:30.111Z,27.44
2023-05-12T16:35:57.773Z,27.70
2023-05-12T16:38:24.924Z,27.99
2023-05-12T16:40:52.296Z,28.96
2023-05-12T16:43:19.540Z,28.91
2023-05-12T16:45:46.803Z,28.94
2023-05-12T16:48:14.054Z,28.90
2023-05-12T16:50:41.195Z,29.73
2023-05-12T16:53:08.348Z,30.64
2023-05-12T16:55:35.510Z,30.89
2023-05-12T16:58:03.163Z,31.26
2023-05-12T17:00:30.319Z,31.92
2023-05-12T17:02:57.529Z,33.20
2023-05-12T17:05:25.077Z,33.64
2023-05-12T17:07:52.593Z,33.58
2023-05-12T17:10:19.759Z,33.68
2023-05-12T17:12:47.001Z,34.20
2023-05-12T17:15:14.153Z,35.17
2023-05-12T17:17:41.316Z,35.49
2023-05-12T17:20:09.373Z,35.25
2023-05-12T17:22:41.668Z,35.26
2023-05-12T17:25:09.427Z,35.55
2023-05-12T17:27:36.815Z,36.03
2023-05-12T17:30:04.882Z,36.69
2023-05-12T17:32:32.233Z,37.17
2023-05-12T17:34:59.460Z,38.02
2023-05-12T17:37:26.623Z,38.47
2023-05-12T17:39:54.069Z,38.65
2023-05-12T17:42:21.545Z,38.99
2023-05-12T17:44:48.693Z,39.28
2023-05-12T17:47:16.182Z,39.56
2023-05-12T17:49:43.809Z,39.63
2023-05-12T17:52:10.966Z,39.98
2023-05-12T17:54:38.123Z,40.51
2023-05-12T17:57:05.984Z,41.00
2023-05-12T17:59:33.080Z,41.31
2023-05-12T18:02:00.441Z,41.16
2023-05-12T18:04:27.655Z,41.63
2023-05-12T18:06:55.311Z,42.02
2023-05-12T18:09:23.798Z,42.07
2023-05-12T18:11:51.152Z,42.41
2023-05-12T18:14:18.305Z,42.42
2023-05-12T18:16:45.491Z,42.39
2023-05-12T18:19:12.820Z,42.94
2023-05-12T18:21:39.969Z,43.36
2023-05-12T18:24:07.532Z,43.30
2023-05-12T18:26:34.686Z,43.29
2023-05-12T18:29:01.906Z,43.14
2023-05-12T18:31:29.509Z,43.56
2023-05-12T18:33:56.853Z,43.70
2023-05-12T18:36:24.001Z,43.91
2023-05-12T18:38:51.259Z,43.77
2023-05-12T18:41:18.413Z,43.87
2023-05-12T18:43:46.382Z,44.02
2023-05-12T18:46:13.765Z,43.77
2023-05-12T18:48:41.202Z,43.73
2023-05-12T18:51:08.366Z,44.05
2023-05-12T18:53:35.507Z,44.49
2023-05-12T18:56:02.659Z,44.88
2023-05-12T18:58:32.375Z,45.25
2023-05-12T19:00:59.525Z,45.05
2023-05-12T19:03:26.683Z,45.30
2023-05-12T19:05:53.963Z,45.41
2023-05-12T19:08:21.501Z,45.69
2023-05-12T19:10:48.767Z,45.92
2023-05-12T19:13:16.113Z,46.90
2023-05-12T19:15:43.291Z,47.73
2023-05-12T19:18:10.417Z,48.25
2023-05-12T19:20:37.891Z,48.85
2023-05-12T19:23:05.032Z,49.07
2023-05-12T19:25:32.192Z,48.87
2023-05-12T19:27:59.341Z,48.60
2023-05-12T19:30:27.824Z,48.21
2023-05-12T19:32:55.006Z,48.10
2023-05-12T19:35:22.998Z,48.13
2023-05-12T19:37:50.409Z,48.02
2023-05-12T19:40:17.563Z,47.34
2023-05-12T19:42:44.927Z,46.97
2023-05-12T19:45:12.481Z,47.32
2023-05-12T19:47:39.780Z,47.47
2023-05-12T19:50:08.135Z,47.20
2023-05-12T19:52:35.584Z,48.20
2023-05-12T19:55:02.731Z,49.17
2023-05-12T19:57:29.887Z,49.20
2023-05-12T19:59:57.051Z,48.38
2023-05-12T20:02:31.014Z,47.25
2023-05-12T20:05:01.490Z,46.25
2023-05-12T20:07:28.745Z,44.92
2023-05-12T20:09:56.008Z,44.59
2023-05-12T20:12:23.149Z,44.33
2023-05-12T20:14:50.300Z,44.18
2023-05-12T20:17:18.072Z,44.02
2023-05-12T20:19:45.348Z,43.97
2023-05-12T20:22:13.089Z,44.30
2023-05-12T20:24:40.250Z,44.24
2023-05-12T20:27:08.318Z,44.14
2023-05-12T20:29:35.681Z,44.22
2023-05-12T20:32:02.930Z,44.47
2023-05-12T20:34:30.081Z,44.67
2023-05-12T20:36:57.749Z,44.41
2023-05-12T20:39:24.907Z,44.62
2023-05-12T20:41:52.061Z,44.88
2023-05-12T20:44:20.336Z,44.84
2023-05-12T20:46:48.319Z,45.20
2023-05-12T20:49:15.560Z,45.22
2023-05-12T20:51:42.718Z,45.30
2023-05-12T20:54:09.868Z,45.06
2023-05-12T20:56:37.019Z,45.15
2023-05-12T20:59:04.180Z,44.98
2023-05-12T21:01:31.395Z,44.89
2023-05-12T21:03:58.613Z,45.14
2023-05-12T21:06:26.037Z,44.96
2023-05-12T21:08:53.297Z,45.10
2023-05-12T21:11:21.269Z,45.13
2023-05-12T21:13:48.466Z,44.98
2023-05-12T21:16:16.769Z,45.48
2023-05-12T21:18:44.418Z,45.27
2023-05-12T21:21:11.535Z,45.21
2023-05-12T21:23:38.775Z,45.19
2023-05-12T21:26:06.247Z,45.29
2023-05-12T21:28:33.381Z,45.34
2023-05-12T21:31:00.474Z,46.42
2023-05-12T21:33:28.100Z,47.93
2023-05-12T21:35:55.456Z,49.34
2023-05-12T21:38:22.609Z,51.46
2023-05-12T21:40:52.705Z,52.15
2023-05-12T21:43:19.885Z,53.51
2023-05-12T21:45:47.068Z,53.33
2023-05-12T21:48:14.392Z,50.62
2023-05-12T21:50:41.553Z,48.95
2023-05-12T21:53:08.697Z,48.46
2023-05-12T21:55:35.862Z,48.34
2023-05-12T21:58:03.007Z,48.32
2023-05-12T22:00:30.166Z,50.46
2023-05-12T22:02:57.374Z,53.09
2023-05-12T22:05:24.671Z,53.94
2023-05-12T22:07:51.826Z,54.66
2023-05-12T22:10:19.200Z,54.61
2023-05-12T22:12:46.952Z,54.84
2023-05-12T22:15:14.106Z,54.23
2023-05-12T22:17:41.315Z,54.55
2023-05-12T22:20:09.534Z,55.14
2023-05-12T22:22:37.000Z,55.86
2023-05-12T22:25:04.952Z,56.74
2023-05-12T22:27:32.126Z,56.98
2023-05-12T22:29:59.273Z,56.95
2023-05-12T22:32:26.545Z,56.69
2023-05-12T22:34:54.197Z,57.07
2023-05-12T22:37:22.477Z,57.22
2023-05-12T22:39:49.626Z,56.93
2023-05-12T22:42:16.783Z,57.19
2023-05-12T22:44:43.934Z,58.02
2023-05-12T22:47:11.434Z,58.84
2023-05-12T22:49:38.858Z,59.48
2023-05-12T22:52:06.705Z,59.50
2023-05-12T22:54:33.880Z,59.57
2023-05-12T22:57:01.024Z,59.32
2023-05-12T22:59:28.175Z,59.92
2023-05-12T23:01:55.328Z,60.28
2023-05-12T23:04:22.526Z,60.17
2023-05-12T23:06:49.752Z,60.13
2023-05-12T23:09:16.898Z,59.29
2023-05-12T23:11:44.042Z,58.78
2023-05-12T23:14:11.804Z,58.28
2023-05-12T23:16:38.987Z,58.48
2023-05-12T23:19:06.230Z,58.86
2023-05-12T23:21:33.668Z,58.92
2023-05-12T23:24:01.130Z,58.99
2023-05-12T23:26:28.283Z,58.92
2023-05-12T23:28:55.450Z,58.85
2023-05-12T23:31:22.599Z,59.21
2023-05-12T23:33:50.068Z,59.32
2023-05-12T23:36:17.303Z,59.28
2023-05-12T23:38:44.761Z,58.86
2023-05-12T23:44:01.700Z,58.73
2023-05-12T23:46:28.927Z,58.91
2023-05-12T23:48:56.822Z,59.16
2023-05-12T23:51:24.314Z,59.30
2023-05-12T23:53:51.942Z,59.44
2023-05-12T23:56:19.092Z,59.51
2023-05-12T23:58:47.784Z,59.69
